createdAt,value
2018-06-13T00:02:18.717Z,10.63
2018-06-13T00:04:46.630Z,13.33
2018-06-13T00:07:14.460Z,8.97
2018-06-13T00:09:42.409Z,10.03
2018-06-13T00:12:10.335Z,11.03
2018-06-13T00:14:38.173Z,9.07
2018-06-13T00:17:06.090Z,9.50
2018-06-13T00:19:33.988Z,10.83
2018-06-13T00:22:01.955Z,13.30
2018-06-13T00:24:29.752Z,9.67
2018-06-13T00:26:57.633Z,10.03
2018-06-13T00:29:25.476Z,10.30
2018-06-13T00:31:53.353Z,9.57
2018-06-13T00:34:21.129Z,9.93
2018-06-13T00:36:52.077Z,10.57
2018-06-13T00:39:19.926Z,14.60
2018-06-13T00:41:47.876Z,12.23
2018-06-13T00:44:15.705Z,12.90
2018-06-13T00:46:43.603Z,11.53
2018-06-13T00:49:11.432Z,10.20
2018-06-13T00:51:39.310Z,12.33
2018-06-13T00:54:07.190Z,11.97
2018-06-13T00:56:35.102Z,14.23
2018-06-13T00:59:03.024Z,11.87
2018-06-13T01:01:30.893Z,11.30
2018-06-13T01:03:58.801Z,11.20
2018-06-13T01:06:26.668Z,13.17
2018-06-13T01:08:54.569Z,10.00
2018-06-13T01:11:22.508Z,11.97
2018-06-13T01:13:50.417Z,11.53
2018-06-13T01:16:18.328Z,12.13
2018-06-13T01:18:46.277Z,10.07
2018-06-13T01:21:14.173Z,12.37
2018-06-13T01:23:42.077Z,11.00
2018-06-13T01:26:09.945Z,13.80
2018-06-13T01:28:37.868Z,11.00
2018-06-13T01:31:06.225Z,13.33
2018-06-13T01:33:34.133Z,12.83
2018-06-13T01:36:02.029Z,10.23
2018-06-13T01:38:30.409Z,11.87
2018-06-13T01:40:58.353Z,12.30
2018-06-13T01:43:26.252Z,9.53
2018-06-13T01:45:54.149Z,10.27
2018-06-13T01:48:22.084Z,8.77
2018-06-13T01:50:55.370Z,13.83
2018-06-13T01:53:23.601Z,11.43
2018-06-13T01:55:51.460Z,10.30
2018-06-13T01:58:20.173Z,9.73
2018-06-13T02:00:49.617Z,9.67
2018-06-13T02:03:17.414Z,10.57
2018-06-13T02:05:45.313Z,8.90
2018-06-13T02:08:13.172Z,12.40
2018-06-13T02:10:41.025Z,10.70
2018-06-13T02:13:08.880Z,9.47
2018-06-13T02:15:36.753Z,10.27
2018-06-13T02:18:04.638Z,9.70
2018-06-13T02:20:32.494Z,11.17
2018-06-13T02:23:00.450Z,10.10
2018-06-13T02:25:28.382Z,10.33
2018-06-13T02:27:56.205Z,10.97
2018-06-13T02:30:24.041Z,10.23
2018-06-13T02:32:51.923Z,11.90
2018-06-13T02:35:19.733Z,10.88
2018-06-13T02:37:47.543Z,11.20
2018-06-13T02:40:15.432Z,11.73
2018-06-13T02:42:43.357Z,10.33
2018-06-13T02:45:11.245Z,10.57
2018-06-13T02:47:39.065Z,9.03
2018-06-13T02:50:07.006Z,10.27
2018-06-13T02:52:34.885Z,12.00
2018-06-13T02:55:02.775Z,10.97
2018-06-13T02:57:30.649Z,10.27
2018-06-13T02:59:58.613Z,14.33
2018-06-13T03:02:26.444Z,11.83
2018-06-13T03:04:54.346Z,12.77
2018-06-13T03:07:22.197Z,10.23
2018-06-13T03:09:49.975Z,10.37
2018-06-13T03:12:17.809Z,9.57
2018-06-13T03:14:45.727Z,8.37
2018-06-13T03:17:13.612Z,8.00
2018-06-13T03:19:41.469Z,10.20
2018-06-13T03:22:09.345Z,7.27
2018-06-13T03:24:37.313Z,8.97
2018-06-13T03:27:05.454Z,6.63
2018-06-13T03:29:33.313Z,7.20
2018-06-13T03:32:01.241Z,7.87
2018-06-13T03:34:29.073Z,7.23
2018-06-13T03:36:57.027Z,5.33
2018-06-13T03:39:24.869Z,4.87
2018-06-13T03:41:52.772Z,6.67
2018-06-13T03:44:20.657Z,6.97
2018-06-13T03:46:48.423Z,4.33
2018-06-13T03:49:16.261Z,5.60
2018-06-13T03:51:44.117Z,4.20
2018-06-13T03:54:11.996Z,3.90
2018-06-13T03:56:39.865Z,5.83
2018-06-13T03:59:07.765Z,4.73
2018-06-13T04:01:35.636Z,8.30
2018-06-13T04:04:03.528Z,4.47
2018-06-13T04:06:31.373Z,4.07
2018-06-13T04:08:59.329Z,4.43
2018-06-13T04:11:27.477Z,4.07
2018-06-13T04:13:56.253Z,5.10
2018-06-13T04:16:24.161Z,5.67
2018-06-13T04:18:52.035Z,10.97
2018-06-13T04:21:20.105Z,5.73
2018-06-13T04:23:47.994Z,8.43
2018-06-13T04:26:20.163Z,6.00
2018-06-13T04:28:48.204Z,4.87
2018-06-13T04:31:16.009Z,6.07
2018-06-13T04:33:43.941Z,4.40
2018-06-13T04:36:11.781Z,4.33
2018-06-13T04:38:39.645Z,6.57
2018-06-13T04:41:07.538Z,4.50
2018-06-13T04:43:35.452Z,4.27
2018-06-13T04:46:03.273Z,4.10
2018-06-13T04:48:31.190Z,8.37
2018-06-13T04:50:59.103Z,4.73
2018-06-13T04:53:27.012Z,4.20
2018-06-13T04:55:55.081Z,5.73
2018-06-13T04:58:22.989Z,4.07
2018-06-13T05:00:51.083Z,3.83
2018-06-13T05:03:19.114Z,3.33
2018-06-13T05:05:47.358Z,4.33
2018-06-13T05:08:15.580Z,3.97
2018-06-13T05:10:45.249Z,6.30
2018-06-13T05:13:13.219Z,3.70
2018-06-13T05:15:41.309Z,3.70
2018-06-13T05:18:11.249Z,3.57
2018-06-13T05:20:42.484Z,4.47
2018-06-13T05:23:10.408Z,4.00
2018-06-13T05:25:38.344Z,3.67
2018-06-13T05:28:06.190Z,4.80
2018-06-13T05:30:34.049Z,5.60
2018-06-13T05:33:01.913Z,4.80
2018-06-13T05:35:29.809Z,4.37
2018-06-13T05:37:57.703Z,4.47
2018-06-13T05:40:25.617Z,6.07
2018-06-13T05:42:53.423Z,4.33
2018-06-13T05:45:21.254Z,5.33
2018-06-13T05:47:49.050Z,3.73
2018-06-13T05:50:17.006Z,4.10
2018-06-13T05:52:44.886Z,4.10
2018-06-13T05:55:12.817Z,3.80
2018-06-13T05:57:40.660Z,3.60
2018-06-13T06:00:08.572Z,4.47
2018-06-13T06:02:36.405Z,4.00
2018-06-13T06:05:04.285Z,4.50
2018-06-13T06:07:32.118Z,6.23
2018-06-13T06:09:59.977Z,4.73
2018-06-13T06:12:27.869Z,4.40
2018-06-13T06:14:55.752Z,4.87
2018-06-13T06:17:23.593Z,4.10
2018-06-13T06:19:51.458Z,6.50
2018-06-13T06:22:19.270Z,4.50
2018-06-13T06:24:47.148Z,4.70
2018-06-13T06:27:15.014Z,4.83
2018-06-13T06:29:42.933Z,6.90
2018-06-13T06:32:14.599Z,4.67
2018-06-13T06:34:42.522Z,4.90
2018-06-13T06:37:10.430Z,4.53
2018-06-13T06:39:38.389Z,4.80
2018-06-13T06:42:06.304Z,5.67
2018-06-13T06:44:34.195Z,5.00
2018-06-13T06:47:02.073Z,3.37
2018-06-13T06:49:30.075Z,3.77
2018-06-13T06:51:57.989Z,5.33
2018-06-13T06:54:25.870Z,3.73
2018-06-13T06:56:53.876Z,3.57
2018-06-13T06:59:21.911Z,4.03
2018-06-13T07:01:49.829Z,3.60
2018-06-13T07:04:17.798Z,6.13
2018-06-13T07:06:45.729Z,3.80
2018-06-13T07:09:13.688Z,3.63
2018-06-13T07:11:41.916Z,3.47
2018-06-13T07:14:09.897Z,4.17
2018-06-13T07:16:37.744Z,3.70
2018-06-13T07:19:05.676Z,4.20
2018-06-13T07:21:33.794Z,4.37
2018-06-13T07:24:01.716Z,5.90
2018-06-13T07:26:29.678Z,5.30
2018-06-13T07:28:57.548Z,3.87
2018-06-13T07:31:25.489Z,4.90
2018-06-13T07:33:53.662Z,5.47
2018-06-13T07:36:21.611Z,3.77
2018-06-13T07:38:49.489Z,4.83
2018-06-13T07:41:17.389Z,4.83
2018-06-13T07:43:45.465Z,5.37
2018-06-13T07:46:13.392Z,5.13
2018-06-13T07:48:41.249Z,4.47
2018-06-13T07:51:09.233Z,5.73
2018-06-13T07:53:37.169Z,3.33
2018-06-13T07:56:05.428Z,3.97
2018-06-13T07:58:33.300Z,3.50
2018-06-13T08:01:01.190Z,3.37
2018-06-13T08:03:29.057Z,5.27
2018-06-13T08:05:56.896Z,3.73
2018-06-13T08:08:24.789Z,4.57
2018-06-13T08:10:52.585Z,3.50
2018-06-13T08:13:20.447Z,4.23
2018-06-13T08:15:48.329Z,3.50
2018-06-13T08:18:16.246Z,5.27
2018-06-13T08:20:44.119Z,4.30
2018-06-13T08:23:12.006Z,4.93
2018-06-13T08:25:39.839Z,3.67
2018-06-13T08:28:07.745Z,3.40
2018-06-13T08:30:35.793Z,4.43
2018-06-13T08:33:03.905Z,4.33
2018-06-13T08:35:32.036Z,4.30
2018-06-13T08:37:59.872Z,4.07
2018-06-13T08:40:28.197Z,6.03
2018-06-13T08:42:57.472Z,2.93
2018-06-13T08:45:26.375Z,6.37
2018-06-13T08:47:55.438Z,6.07
2018-06-13T08:50:24.361Z,3.20
2018-06-13T08:52:52.377Z,3.37
2018-06-13T08:55:21.648Z,3.40
2018-06-13T08:57:51.828Z,5.47
2018-06-13T09:00:20.518Z,3.10
2018-06-13T09:02:48.549Z,3.37
2018-06-13T09:05:16.373Z,4.40
2018-06-13T09:07:44.176Z,3.57
2018-06-13T09:10:12.078Z,5.50
2018-06-13T09:12:40.046Z,3.07
2018-06-13T09:15:08.268Z,2.90
2018-06-13T09:17:36.529Z,3.10
2018-06-13T09:20:04.652Z,2.70
2018-06-13T09:22:32.494Z,4.40
2018-06-13T09:25:00.301Z,5.43
2018-06-13T09:27:28.236Z,2.40
2018-06-13T09:29:56.084Z,2.70
2018-06-13T09:32:23.962Z,2.87
2018-06-13T09:34:51.761Z,4.50
2018-06-13T09:37:19.639Z,2.80
2018-06-13T09:39:47.466Z,2.63
2018-06-13T09:42:15.266Z,2.47
2018-06-13T09:44:43.081Z,2.60
2018-06-13T09:47:15.140Z,2.50
2018-06-13T09:49:38.780Z,3.63
2018-06-13T09:52:06.632Z,4.07
2018-06-13T09:54:34.445Z,3.17
2018-06-13T09:57:02.228Z,3.30
2018-06-13T09:59:35.561Z,3.30
2018-06-13T10:02:09.228Z,3.57
2018-06-13T10:04:37.210Z,2.80
2018-06-13T10:07:05.062Z,2.47
2018-06-13T10:09:32.855Z,2.13
2018-06-13T10:12:00.674Z,2.47
2018-06-13T10:14:28.498Z,2.87
2018-06-13T10:16:56.341Z,3.03
2018-06-13T10:19:24.118Z,2.67
2018-06-13T10:21:52.004Z,4.10
2018-06-13T10:24:19.821Z,2.63
2018-06-13T10:26:47.640Z,2.70
2018-06-13T10:29:15.538Z,5.97
2018-06-13T10:31:43.364Z,3.37
2018-06-13T10:34:11.204Z,1.70
2018-06-13T10:36:39.049Z,2.10
2018-06-13T10:39:07.793Z,1.70
2018-06-13T10:41:35.817Z,2.13
2018-06-13T10:44:04.532Z,3.10
2018-06-13T10:46:32.427Z,2.87
2018-06-13T10:49:00.256Z,2.07
2018-06-13T10:51:28.193Z,1.70
2018-06-13T10:53:56.062Z,1.73
2018-06-13T10:56:23.893Z,1.80
2018-06-13T10:58:51.705Z,3.03
2018-06-13T11:01:19.528Z,2.13
2018-06-13T11:03:47.306Z,2.93
2018-06-13T11:06:15.122Z,1.80
2018-06-13T11:08:42.980Z,1.70
2018-06-13T11:11:10.790Z,1.60
2018-06-13T11:13:38.594Z,1.50
2018-06-13T11:16:06.431Z,1.90
2018-06-13T11:18:34.254Z,1.70
2018-06-13T11:21:02.069Z,2.60
2018-06-13T11:23:34.607Z,1.90
2018-06-13T11:26:02.575Z,2.23
2018-06-13T11:28:30.381Z,2.40
2018-06-13T11:30:58.142Z,1.60
2018-06-13T11:33:25.985Z,2.33
2018-06-13T11:35:53.753Z,2.00
2018-06-13T11:38:21.569Z,2.60
2018-06-13T11:40:49.377Z,2.13
2018-06-13T11:43:17.169Z,1.97
2018-06-13T11:45:53.696Z,2.03
2018-06-13T11:48:21.667Z,4.33
2018-06-13T11:50:49.442Z,4.27
2018-06-13T11:53:17.219Z,3.23
2018-06-13T11:55:45.076Z,2.53
2018-06-13T11:58:13.576Z,2.00
2018-06-13T12:00:41.722Z,1.90
2018-06-13T12:03:10.093Z,1.70
2018-06-13T12:05:38.919Z,2.13
2018-06-13T12:08:06.721Z,2.43
2018-06-13T12:10:34.595Z,2.00
2018-06-13T12:13:02.382Z,3.50
2018-06-13T12:15:30.242Z,1.90
2018-06-13T12:17:58.048Z,4.50
2018-06-13T12:20:25.858Z,2.37
2018-06-13T12:22:53.653Z,2.33
2018-06-13T12:25:21.496Z,2.47
2018-06-13T12:27:49.317Z,2.10
2018-06-13T12:30:17.089Z,3.67
2018-06-13T12:32:45.132Z,3.43
2018-06-13T12:35:13.361Z,2.10
2018-06-13T12:37:41.301Z,2.10
2018-06-13T12:40:09.182Z,2.50
2018-06-13T12:42:36.937Z,2.40
2018-06-13T12:45:04.812Z,4.63
2018-06-13T12:47:33.585Z,2.57
2018-06-13T12:50:01.514Z,3.07
2018-06-13T12:52:29.367Z,3.23
2018-06-13T12:54:57.244Z,2.77
2018-06-13T12:57:25.229Z,3.17
2018-06-13T12:59:53.048Z,2.60
2018-06-13T13:02:21.227Z,3.90
2018-06-13T13:04:49.061Z,3.00
2018-06-13T13:07:16.845Z,2.50
2018-06-13T13:09:44.642Z,2.80
2018-06-13T13:12:12.525Z,2.77
2018-06-13T13:14:40.285Z,3.13
2018-06-13T13:17:08.069Z,2.50
2018-06-13T13:19:35.890Z,2.73
2018-06-13T13:22:03.716Z,2.20
2018-06-13T13:24:31.530Z,4.53
2018-06-13T13:26:59.365Z,1.83
2018-06-13T13:29:27.169Z,2.03
2018-06-13T13:31:54.980Z,1.97
2018-06-13T13:34:22.768Z,1.60
2018-06-13T13:36:50.575Z,2.20
2018-06-13T13:39:18.380Z,3.90
2018-06-13T13:41:46.181Z,2.17
2018-06-13T13:44:13.989Z,1.60
2018-06-13T13:46:41.779Z,2.60
2018-06-13T13:49:09.525Z,1.97
2018-06-13T13:51:37.313Z,2.83
2018-06-13T13:54:05.314Z,3.83
2018-06-13T13:56:33.052Z,2.53
2018-06-13T13:59:00.868Z,2.53
2018-06-13T14:01:28.661Z,2.73
2018-06-13T14:03:56.517Z,1.73
2018-06-13T14:06:24.308Z,1.80
2018-06-13T14:08:52.076Z,2.93
2018-06-13T14:11:19.897Z,1.93
2018-06-13T14:13:47.798Z,2.97
2018-06-13T14:16:15.585Z,3.40
2018-06-13T14:18:43.379Z,2.30
2018-06-13T14:21:11.226Z,1.90
2018-06-13T14:23:39.037Z,3.30
2018-06-13T14:26:07.010Z,2.57
2018-06-13T14:28:34.705Z,2.83
2018-06-13T14:31:02.529Z,2.20
2018-06-13T14:33:30.385Z,1.93
2018-06-13T14:35:58.215Z,3.10
2018-06-13T14:38:26.006Z,2.07
2018-06-13T14:40:53.804Z,3.10
2018-06-13T14:43:21.645Z,2.63
2018-06-13T14:45:49.889Z,3.37
2018-06-13T14:48:17.663Z,5.83
2018-06-13T14:50:45.502Z,5.50
2018-06-13T14:53:18.136Z,3.03
2018-06-13T14:55:50.601Z,1.83
2018-06-13T14:58:18.372Z,3.20
2018-06-13T15:00:46.238Z,2.40
2018-06-13T15:03:14.069Z,2.60
2018-06-13T15:05:41.860Z,2.90
2018-06-13T15:08:09.681Z,2.07
2018-06-13T15:10:37.566Z,2.40
2018-06-13T15:13:05.613Z,1.93
2018-06-13T15:15:33.458Z,2.33
2018-06-13T15:18:01.629Z,2.90
2018-06-13T15:20:29.461Z,4.50
2018-06-13T15:22:57.338Z,2.90
2018-06-13T15:25:25.197Z,3.93
2018-06-13T15:27:53.035Z,2.63
2018-06-13T15:30:20.845Z,2.90
2018-06-13T15:32:48.703Z,5.03
2018-06-13T15:35:16.514Z,1.93
2018-06-13T15:37:44.302Z,2.70
2018-06-13T15:40:21.060Z,3.00
2018-06-13T15:42:49.352Z,2.50
2018-06-13T15:45:18.858Z,2.40
2018-06-13T15:47:47.826Z,3.50
2018-06-13T15:50:18.300Z,3.13
2018-06-13T15:52:46.073Z,3.03
2018-06-13T15:55:13.945Z,4.37
2018-06-13T15:57:41.745Z,2.80
2018-06-13T16:00:09.593Z,4.17
2018-06-13T16:02:37.413Z,8.23
2018-06-13T16:05:05.413Z,2.80
2018-06-13T16:07:33.244Z,3.10
2018-06-13T16:10:01.080Z,4.10
2018-06-13T16:12:28.877Z,3.23
2018-06-13T16:14:56.654Z,3.30
2018-06-13T16:17:24.681Z,2.90
2018-06-13T16:19:52.522Z,2.90
2018-06-13T16:22:20.343Z,2.97
2018-06-13T16:24:48.169Z,3.60
2018-06-13T16:27:15.988Z,4.27
2018-06-13T16:29:43.964Z,3.00
2018-06-13T16:32:11.844Z,4.70
2018-06-13T16:34:39.670Z,2.83
2018-06-13T16:37:07.639Z,4.40
2018-06-13T16:39:35.658Z,3.07
2018-06-13T16:42:04.532Z,3.67
2018-06-13T16:44:32.760Z,4.63
2018-06-13T16:47:00.657Z,5.03
2018-06-13T16:49:28.724Z,3.93
2018-06-13T16:51:57.656Z,8.33
2018-06-13T16:54:43.129Z,4.53
2018-06-13T16:57:10.941Z,3.30
2018-06-13T16:59:38.801Z,4.50
2018-06-13T17:02:06.642Z,5.43
2018-06-13T17:04:34.561Z,3.07
2018-06-13T17:07:02.553Z,6.13
2018-06-13T17:09:36.310Z,3.57
2018-06-13T17:12:04.642Z,3.20
2018-06-13T17:14:32.561Z,3.13
2018-06-13T17:17:00.845Z,3.30
2018-06-13T17:19:29.497Z,4.63
2018-06-13T17:21:57.881Z,3.97
2018-06-13T17:24:25.997Z,7.13
2018-06-13T17:26:54.540Z,4.27
2018-06-13T17:29:22.845Z,3.20
2018-06-13T17:31:51.471Z,3.63
2018-06-13T17:34:19.664Z,6.57
2018-06-13T17:36:48.590Z,4.17
2018-06-13T17:39:16.930Z,4.80
2018-06-13T17:41:44.857Z,3.87
2018-06-13T17:44:12.779Z,4.23
2018-06-13T17:46:40.785Z,3.83
2018-06-13T17:49:09.156Z,4.50
2018-06-13T17:51:37.398Z,5.13
2018-06-13T17:54:05.667Z,3.57
2018-06-13T17:56:33.873Z,4.70
2018-06-13T17:59:03.430Z,3.80
2018-06-13T18:01:32.634Z,4.13
2018-06-13T18:04:00.746Z,3.97
2018-06-13T18:06:28.949Z,4.60
2018-06-13T18:08:59.386Z,3.73
2018-06-13T18:11:28.615Z,4.07
2018-06-13T18:13:57.099Z,3.43
2018-06-13T18:16:25.898Z,6.23
2018-06-13T18:19:03.892Z,6.47
2018-06-13T18:21:33.384Z,5.70
2018-06-13T18:24:01.742Z,5.43
2018-06-13T18:26:30.129Z,5.63
2018-06-13T18:28:58.029Z,4.20
2018-06-13T18:31:26.190Z,3.77
2018-06-13T18:33:55.800Z,2.90
2018-06-13T18:36:23.772Z,3.43
2018-06-13T18:38:51.778Z,3.20
2018-06-13T18:41:21.092Z,4.20
2018-06-13T18:43:49.033Z,3.53
2018-06-13T18:46:16.892Z,2.90
2018-06-13T18:48:45.966Z,3.50
2018-06-13T18:51:15.945Z,3.97
2018-06-13T18:53:46.510Z,3.13
2018-06-13T18:56:20.471Z,3.17
2018-06-13T18:58:48.361Z,4.30
2018-06-13T19:01:16.265Z,4.23
2018-06-13T19:03:44.170Z,5.10
2018-06-13T19:06:12.093Z,4.30
2018-06-13T19:08:40.150Z,2.50
2018-06-13T19:11:08.147Z,3.97
2018-06-13T19:13:35.997Z,4.63
2018-06-13T19:16:03.922Z,4.10
2018-06-13T19:18:31.820Z,2.87
2018-06-13T19:20:59.693Z,2.97
2018-06-13T19:23:27.599Z,2.63
2018-06-13T19:25:55.512Z,4.07
2018-06-13T19:28:23.403Z,3.67
2018-06-13T19:30:51.265Z,3.70
2018-06-13T19:33:19.185Z,5.50
2018-06-13T19:35:47.032Z,6.70
2018-06-13T19:38:16.370Z,4.77
2018-06-13T19:40:52.444Z,3.80
2018-06-13T19:43:26.636Z,3.17
2018-06-13T19:45:58.792Z,6.77
2018-06-13T19:48:34.705Z,4.93
2018-06-13T19:51:06.502Z,3.73
2018-06-13T19:53:40.196Z,4.07
2018-06-13T19:56:09.364Z,3.13
2018-06-13T19:58:38.030Z,3.77
2018-06-13T20:01:06.330Z,3.43
2018-06-13T20:03:42.001Z,4.07
2018-06-13T20:06:10.927Z,2.60
2018-06-13T20:08:38.886Z,5.00
2018-06-13T20:11:06.913Z,4.27
2018-06-13T20:13:40.876Z,5.30
2018-06-13T20:16:15.721Z,3.40
2018-06-13T20:18:49.769Z,3.53
2018-06-13T20:21:17.977Z,2.87
2018-06-13T20:23:47.422Z,5.13
2018-06-13T20:26:20.932Z,3.57
2018-06-13T20:28:57.495Z,2.93
2018-06-13T20:31:36.983Z,2.97
2018-06-13T20:34:05.939Z,3.53
2018-06-13T20:36:35.522Z,4.03
2018-06-13T20:39:06.144Z,4.50
2018-06-13T20:41:34.038Z,5.07
2018-06-13T20:44:01.959Z,3.83
2018-06-13T20:46:29.881Z,6.47
2018-06-13T20:48:57.777Z,6.87
2018-06-13T20:51:25.716Z,4.13
2018-06-13T20:53:53.683Z,4.33
2018-06-13T20:56:21.697Z,3.73
2018-06-13T20:58:49.670Z,4.07
2018-06-13T21:01:17.585Z,3.40
2018-06-13T21:03:45.474Z,5.43
2018-06-13T21:06:13.719Z,4.90
2018-06-13T21:08:41.647Z,6.47
2018-06-13T21:11:09.494Z,5.33
2018-06-13T21:13:37.424Z,3.97
2018-06-13T21:16:05.473Z,5.20
2018-06-13T21:18:33.426Z,4.63
2018-06-13T21:21:01.233Z,3.53
2018-06-13T21:23:29.140Z,4.40
2018-06-13T21:25:57.229Z,4.50
2018-06-13T21:28:25.288Z,6.77
2018-06-13T21:30:54.272Z,8.83
2018-06-13T21:33:22.230Z,4.33
2018-06-13T21:35:50.122Z,6.17
2018-06-13T21:38:18.807Z,6.47
2018-06-13T21:40:46.677Z,6.00
2018-06-13T21:43:14.774Z,5.43
2018-06-13T21:45:43.433Z,4.83
2018-06-13T21:48:11.493Z,6.17
2018-06-13T21:50:39.420Z,6.50
2018-06-13T21:53:07.396Z,6.03
2018-06-13T21:55:35.335Z,6.17
2018-06-13T21:58:03.325Z,5.53
2018-06-13T22:00:31.293Z,7.63
2018-06-13T22:02:59.320Z,6.67
2018-06-13T22:05:27.212Z,5.33
2018-06-13T22:07:55.288Z,6.27
2018-06-13T22:10:23.169Z,4.83
2018-06-13T22:12:51.106Z,5.53
2018-06-13T22:15:26.723Z,8.33
2018-06-13T22:17:56.901Z,5.97
2018-06-13T22:20:25.257Z,6.40
2018-06-13T22:22:53.168Z,5.07
2018-06-13T22:25:21.046Z,6.03
2018-06-13T22:27:49.013Z,6.17
2018-06-13T22:30:17.195Z,5.50
2018-06-13T22:32:45.521Z,5.93
2018-06-13T22:35:15.532Z,6.30
2018-06-13T22:37:43.460Z,7.77
2018-06-13T22:40:11.462Z,5.50
2018-06-13T22:42:39.341Z,6.67
2018-06-13T22:45:07.376Z,7.03
2018-06-13T22:47:35.272Z,9.10
2018-06-13T22:50:04.751Z,6.40
2018-06-13T22:52:32.849Z,6.80
2018-06-13T22:55:04.762Z,8.60
2018-06-13T22:57:32.628Z,5.90
2018-06-13T23:00:00.533Z,5.90
2018-06-13T23:02:28.341Z,5.37
2018-06-13T23:04:56.221Z,6.07
2018-06-13T23:07:24.017Z,8.30
2018-06-13T23:09:51.929Z,5.83
2018-06-13T23:12:19.849Z,7.07
2018-06-13T23:14:47.682Z,9.53
2018-06-13T23:17:17.550Z,6.57
2018-06-13T23:19:45.447Z,9.50
2018-06-13T23:22:13.329Z,6.13
2018-06-13T23:24:41.265Z,6.00
2018-06-13T23:27:09.162Z,7.87
2018-06-13T23:29:37.022Z,7.17
2018-06-13T23:32:04.937Z,10.53
2018-06-13T23:34:32.801Z,6.67
2018-06-13T23:37:00.619Z,6.63
2018-06-13T23:39:28.543Z,6.47
2018-06-13T23:41:56.437Z,6.83
2018-06-13T23:44:24.329Z,6.57
2018-06-13T23:46:52.217Z,6.00
2018-06-13T23:49:20.050Z,6.10
2018-06-13T23:51:47.924Z,7.50
2018-06-13T23:54:15.809Z,6.87
2018-06-13T23:56:43.708Z,5.50
2018-06-13T23:59:11.533Z,7.33
